Time;durP1;ratioP1;P1;durP2;ratioP2;P2;SDS_P1;SDS_P2;PMS_P1;PMS_P2;Temp;Humidity;BMP_temperature;BMP_pressure;BME280_temperature;BME280_humidity;BME280_pressure;Samples;Min_cycle;Max_cycle;Signal;HPM_P1;HPM_P2
2021/04/30 00:03:08;;;;;;;0.30;0.30;;;15.80;99.90;;;;;;20718083;23;20243;-81
2021/04/30 00:13:12;;;;;;;1.17;1.07;;;15.90;99.90;;;;;;20684778;28;20222;-81
2021/04/30 00:23:16;;;;;;;1.73;1.07;;;15.90;99.90;;;;;;20700601;28;20593;-79
2021/04/30 00:33:19;;;;;;;0.43;0.43;;;15.90;99.90;;;;;;20701326;28;20297;-80
2021/04/30 00:43:23;;;;;;;0.57;0.30;;;15.80;99.90;;;;;;20700661;28;20852;-80
2021/04/30 00:53:25;;;;;;;1.67;0.63;;;16.10;99.90;;;;;;20698935;28;20310;-80
2021/04/30 01:03:29;;;;;;;3.10;1.40;;;16.00;99.90;;;;;;20712839;23;20238;-74
2021/04/30 01:13:32;;;;;;;0.73;0.63;;;15.90;99.90;;;;;;20700010;28;20223;-73
2021/04/30 01:23:45;;;;;;;0.70;0.53;;;15.90;99.90;;;;;;20697417;28;20666;-75
2021/04/30 01:33:55;;;;;;;0.47;0.43;;;15.90;99.90;;;;;;20696292;28;20218;-76
2021/04/30 01:43:58;;;;;;;1.23;1.13;;;15.90;99.90;;;;;;20704015;28;20294;-75
2021/04/30 01:54:01;;;;;;;0.23;0.23;;;15.80;99.90;;;;;;20694950;28;20695;-74
2021/04/30 02:04:07;;;;;;;0.93;0.87;;;15.60;99.90;;;;;;20693586;28;20218;-75
2021/04/30 02:14:10;;;;;;;0.40;0.40;;;15.50;99.90;;;;;;20695556;28;20218;-74
2021/04/30 02:24:13;;;;;;;1.53;0.57;;;15.60;99.90;;;;;;20695683;28;20207;-74
2021/04/30 02:34:16;;;;;;;0.30;0.30;;;15.40;99.90;;;;;;20696281;28;20802;-74
2021/04/30 02:44:19;;;;;;;1.30;0.43;;;15.30;99.90;;;;;;20681591;28;20194;-74
2021/04/30 02:54:22;;;;;;;0.20;0.10;;;15.00;99.90;;;;;;20710808;28;20234;-73
2021/04/30 03:04:25;;;;;;;0.20;0.10;;;14.70;99.90;;;;;;20708922;28;20238;-75
2021/04/30 03:14:28;;;;;;;5.00;0.87;;;14.70;99.90;;;;;;20688092;28;20234;-74
2021/04/30 03:24:31;;;;;;;0.33;0.33;;;14.60;99.90;;;;;;20706946;28;20201;-74
2021/04/30 03:34:34;;;;;;;1.03;0.93;;;14.70;99.90;;;;;;20704560;28;20232;-74
2021/04/30 03:44:37;;;;;;;0.50;0.43;;;14.60;99.90;;;;;;20705103;28;20682;-74
2021/04/30 03:54:40;;;;;;;0.70;0.70;;;14.70;99.90;;;;;;20703971;28;20691;-72
2021/04/30 04:04:43;;;;;;;0.50;0.50;;;14.80;99.90;;;;;;20658183;28;20305;-72
2021/04/30 04:14:46;;;;;;;0.20;0.20;;;14.90;99.90;;;;;;20636172;28;20743;-74
2021/04/30 04:24:49;;;;;;;0.40;0.40;;;15.00;99.90;;;;;;20625843;28;20499;-74
2021/04/30 04:34:55;;;;;;;2.13;0.57;;;15.00;99.90;;;;;;20621856;28;20657;-74
2021/04/30 04:44:59;;;;;;;0.20;0.10;;;15.30;99.90;;;;;;20620911;28;20207;-75
2021/04/30 04:55:02;;;;;;;0.83;0.60;;;15.20;99.90;;;;;;20619933;28;20243;-77
2021/04/30 05:05:06;;;;;;;0.20;0.10;;;15.40;99.90;;;;;;20668308;28;20249;-74
2021/04/30 05:15:10;;;;;;;1.80;1.37;;;15.60;99.90;;;;;;20696485;28;20230;-74
2021/04/30 05:25:15;;;;;;;0.33;0.27;;;15.40;99.90;;;;;;20699511;28;20707;-75
2021/04/30 05:35:18;;;;;;;0.77;0.57;;;15.60;99.90;;;;;;20695208;28;20245;-74
2021/04/30 05:45:21;;;;;;;0.87;0.83;;;15.80;99.90;;;;;;20696425;28;20199;-73
2021/04/30 05:55:23;;;;;;;4.03;1.20;;;15.90;99.90;;;;;;20694710;28;20234;-78
2021/04/30 06:05:27;;;;;;;0.20;0.20;;;16.00;99.90;;;;;;20643383;28;20231;-73
2021/04/30 06:15:30;;;;;;;0.50;0.40;;;15.80;99.90;;;;;;20610737;28;20234;-74
2021/04/30 06:25:33;;;;;;;0.40;0.40;;;16.20;99.90;;;;;;20612548;28;20616;-74
2021/04/30 06:35:36;;;;;;;0.67;0.60;;;16.10;99.90;;;;;;20609896;28;20239;-75
2021/04/30 06:45:40;;;;;;;1.43;0.50;;;16.30;99.90;;;;;;20610790;28;20274;-74
2021/04/30 06:55:43;;;;;;;0.47;0.47;;;16.40;99.90;;;;;;20608745;28;20390;-75
2021/04/30 07:05:47;;;;;;;1.97;0.93;;;16.40;99.90;;;;;;20664673;28;20589;-71
2021/04/30 07:15:50;;;;;;;0.30;0.30;;;16.40;99.90;;;;;;20670263;28;20708;-73
2021/04/30 07:25:54;;;;;;;0.40;0.40;;;16.60;99.90;;;;;;20689687;28;20688;-71
2021/04/30 07:35:59;;;;;;;1.30;1.20;;;17.10;99.90;;;;;;20683270;28;20269;-71
2021/04/30 07:46:04;;;;;;;0.87;0.80;;;17.30;99.90;;;;;;20705328;28;20203;-70
2021/04/30 07:56:07;;;;;;;1.73;1.30;;;17.70;99.90;;;;;;20701208;28;20222;-72
2021/04/30 08:06:11;;;;;;;4.33;1.70;;;17.90;99.90;;;;;;20643743;28;20321;-74
2021/04/30 08:16:13;;;;;;;1.50;1.23;;;18.30;99.90;;;;;;20620263;28;20223;-71
2021/04/30 08:26:17;;;;;;;0.57;0.50;;;18.10;99.90;;;;;;20601170;28;20297;-68
2021/04/30 08:36:21;;;;;;;2.63;1.37;;;18.00;99.90;;;;;;20635373;28;20222;-71
2021/04/30 08:46:25;;;;;;;0.80;0.80;;;18.60;99.90;;;;;;20697673;28;20393;-71
2021/04/30 08:56:28;;;;;;;0.57;0.50;;;18.90;99.90;;;;;;20678264;28;20387;-70
2021/04/30 09:06:37;;;;;;;0.83;0.50;;;19.30;99.90;;;;;;20678841;28;20672;-71
2021/04/30 09:17:00;;;;;;;0.63;0.37;;;18.50;99.90;;;;;;20711304;28;20288;-72
2021/04/30 09:27:28;;;;;;;0.67;0.40;;;18.50;99.90;;;;;;20707951;28;20198;-71
2021/04/30 09:37:31;;;;;;;0.30;0.30;;;18.80;99.90;;;;;;20696180;28;20218;-74
2021/04/30 09:47:36;;;;;;;0.97;0.90;;;19.30;99.90;;;;;;20694349;28;20517;-72
2021/04/30 09:57:40;;;;;;;1.00;0.93;;;19.30;99.90;;;;;;20692596;28;20218;-72
2021/04/30 10:07:44;;;;;;;1.27;0.80;;;19.30;99.90;;;;;;20692488;28;20222;-68
2021/04/30 10:17:52;;;;;;;1.70;1.30;;;19.90;99.90;;;;;;20690778;28;20269;-72
2021/04/30 10:27:57;;;;;;;1.37;1.03;;;20.00;99.90;;;;;;20676794;28;20656;-71
2021/04/30 10:38:16;;;;;;;1.80;1.60;;;20.40;99.90;;;;;;20689560;28;20313;-69
2021/04/30 10:48:23;;;;;;;0.43;0.43;;;19.60;99.90;;;;;;20692817;28;20672;-73
2021/04/30 10:58:39;;;;;;;1.43;1.33;;;20.10;99.90;;;;;;20689368;28;20191;-73
2021/04/30 11:08:51;;;;;;;1.00;0.93;;;20.80;99.90;;;;;;20772059;23;20464;-73
2021/04/30 11:19:03;;;;;;;0.53;0.53;;;20.90;99.90;;;;;;20706054;28;20237;-73
2021/04/30 11:29:16;;;;;;;0.70;0.50;;;21.30;99.90;;;;;;20685693;28;20229;-72
2021/04/30 11:39:25;;;;;;;2.00;0.70;;;21.40;99.90;;;;;;20704878;28;20651;-74
2021/04/30 11:49:40;;;;;;;9.83;1.13;;;21.60;99.90;;;;;;20702584;28;20492;-70
2021/04/30 11:59:51;;;;;;;0.20;0.10;;;21.40;99.90;;;;;;20698672;28;20203;-74
2021/04/30 12:10:18;;;;;;;0.73;0.73;;;20.50;99.90;;;;;;20677760;28;20250;-71
2021/04/30 12:20:23;;;;;;;0.90;0.87;;;20.20;99.90;;;;;;20702300;28;20269;-72
2021/04/30 12:30:32;;;;;;;4.00;2.17;;;19.70;99.90;;;;;;20702297;28;20423;-72
2021/04/30 12:40:35;;;;;;;0.40;0.40;;;19.10;99.90;;;;;;20729665;28;20497;-73
2021/04/30 12:50:40;;;;;;;0.33;0.33;;;18.80;99.90;;;;;;20682640;28;20222;-71
2021/04/30 13:01:12;;;;;;;0.93;0.93;;;18.60;99.90;;;;;;20696200;28;20198;-72
2021/04/30 13:11:18;;;;;;;0.30;0.27;;;18.10;99.90;;;;;;20760243;28;20226;-72
2021/04/30 13:21:31;;;;;;;0.43;0.43;;;17.90;99.90;;;;;;20781020;28;20761;-72
2021/04/30 13:31:35;;;;;;;0.20;0.10;;;17.70;99.90;;;;;;20750406;28;20373;-71
2021/04/30 13:41:38;;;;;;;0.20;0.17;;;17.60;99.90;;;;;;20695694;28;20285;-72
2021/04/30 13:51:42;;;;;;;0.30;0.30;;;17.60;99.90;;;;;;20697729;28;20223;-72
2021/04/30 14:01:44;;;;;;;0.50;0.40;;;17.80;99.90;;;;;;20717057;28;20209;-72
2021/04/30 14:11:49;;;;;;;0.30;0.30;;;18.00;99.90;;;;;;20763149;28;20504;-73
2021/04/30 14:21:52;;;;;;;2.13;0.47;;;17.60;99.90;;;;;;20807582;28;20224;-72
2021/04/30 14:31:56;;;;;;;0.20;0.10;;;18.00;99.90;;;;;;20744803;28;20240;-72
2021/04/30 14:41:59;;;;;;;2.57;0.73;;;18.50;99.90;;;;;;20689748;28;20570;-73
2021/04/30 14:52:06;;;;;;;0.23;0.20;;;19.90;99.90;;;;;;20692869;28;20237;-69
2021/04/30 15:02:10;;;;;;;0.63;0.53;;;19.10;99.90;;;;;;20716273;28;20194;-72
2021/04/30 15:12:14;;;;;;;0.70;0.40;;;19.50;99.90;;;;;;20773397;28;20308;-72
2021/04/30 15:22:17;;;;;;;0.30;0.30;;;21.10;99.90;;;;;;20773409;28;20210;-75
2021/04/30 15:32:21;;;;;;;0.20;0.20;;;20.10;99.90;;;;;;20741045;28;20337;-74
2021/04/30 15:42:23;;;;;;;0.40;0.30;;;20.50;99.90;;;;;;20689258;28;20195;-71
2021/04/30 15:52:30;;;;;;;0.73;0.73;;;22.20;99.90;;;;;;20695742;28;20256;-72
2021/04/30 16:02:36;;;;;;;0.20;0.10;;;21.50;99.90;;;;;;20685508;28;20195;-71
2021/04/30 16:12:40;;;;;;;0.53;0.40;;;21.20;99.90;;;;;;20709299;28;20401;-74
2021/04/30 16:22:43;;;;;;;0.20;0.20;;;20.60;99.90;;;;;;20669576;28;20266;-72
2021/04/30 16:32:47;;;;;;;0.30;0.13;;;19.50;99.90;;;;;;20658283;28;20606;-70
2021/04/30 16:42:51;;;;;;;0.20;0.20;;;19.00;99.90;;;;;;20702758;28;20202;-74
2021/04/30 16:52:55;;;;;;;1.13;0.60;;;19.30;99.90;;;;;;20700105;28;20315;-73
2021/04/30 17:03:02;;;;;;;0.50;0.50;;;19.00;99.90;;;;;;20682661;28;20338;-73
2021/04/30 17:13:07;;;;;;;1.00;0.27;;;20.00;99.90;;;;;;20698927;28;20289;-73
2021/04/30 17:23:10;;;;;;;0.40;0.40;;;21.70;99.90;;;;;;20697873;28;20206;-73
2021/04/30 17:33:15;;;;;;;0.27;0.17;;;22.40;99.90;;;;;;20679865;28;20644;-74
2021/04/30 17:43:31;;;;;;;0.20;0.20;;;22.70;99.90;;;;;;20696178;28;20194;-71
2021/04/30 17:53:36;;;;;;;0.53;0.33;;;19.10;99.90;;;;;;20698104;28;20441;-74
2021/04/30 18:03:39;;;;;;;0.23;0.23;;;18.20;99.90;;;;;;20733546;28;20256;-74
2021/04/30 18:13:57;;;;;;;0.30;0.30;;;17.80;99.90;;;;;;20775575;28;20256;-76
2021/04/30 18:24:01;;;;;;;0.50;0.50;;;17.50;99.90;;;;;;20776209;28;20550;-75
2021/04/30 18:34:05;;;;;;;0.20;0.17;;;17.10;99.90;;;;;;20753807;28;20245;-76
2021/04/30 18:44:23;;;;;;;0.20;0.17;;;17.00;99.90;;;;;;20695123;28;20666;-75
2021/04/30 18:54:27;;;;;;;0.20;0.00;;;16.80;99.90;;;;;;20677741;28;20699;-74
2021/04/30 19:04:30;;;;;;;0.23;0.13;;;16.80;99.90;;;;;;20660666;28;20222;-82
2021/04/30 19:14:34;;;;;;;0.20;0.20;;;16.80;99.90;;;;;;20696172;28;20542;-74
2021/04/30 19:24:37;;;;;;;0.20;0.20;;;16.60;99.90;;;;;;20718500;28;20194;-76
2021/04/30 19:34:40;;;;;;;0.83;0.30;;;16.30;99.90;;;;;;20720108;28;20582;-77
2021/04/30 19:44:43;;;;;;;0.70;0.40;;;16.50;99.90;;;;;;20729180;28;20203;-74
2021/04/30 19:54:47;;;;;;;0.20;0.20;;;16.40;99.90;;;;;;20711525;28;20235;-75
2021/04/30 20:04:51;;;;;;;0.20;0.10;;;16.30;99.90;;;;;;20709446;28;20620;-74
2021/04/30 20:14:56;;;;;;;0.73;0.73;;;16.20;99.90;;;;;;20703514;28;20590;-75
2021/04/30 20:24:59;;;;;;;8.60;0.63;;;16.20;99.90;;;;;;20704232;28;20261;-76
2021/04/30 20:35:03;;;;;;;0.90;0.33;;;16.30;99.90;;;;;;20701754;28;20313;-74
2021/04/30 20:45:08;;;;;;;0.60;0.60;;;16.50;99.90;;;;;;20685508;28;20254;-76
2021/04/30 20:55:12;;;;;;;0.43;0.40;;;16.30;99.90;;;;;;20699960;28;20230;-75
2021/04/30 21:05:16;;;;;;;0.30;0.30;;;16.20;99.90;;;;;;20700159;28;20564;-76
2021/04/30 21:15:20;;;;;;;0.20;0.17;;;16.20;99.90;;;;;;20698055;28;20237;-74
2021/04/30 21:25:23;;;;;;;0.20;0.10;;;16.20;99.90;;;;;;20696803;28;20207;-76
2021/04/30 21:35:28;;;;;;;0.30;0.20;;;16.30;99.90;;;;;;20680506;28;20223;-76
2021/04/30 21:45:31;;;;;;;1.07;0.70;;;16.10;99.90;;;;;;20697531;28;20195;-74
2021/04/30 21:55:35;;;;;;;2.10;1.47;;;16.10;99.90;;;;;;20697482;28;20234;-75
2021/04/30 22:05:37;;;;;;;6.30;0.53;;;16.40;99.90;;;;;;20694371;28;20222;-74
2021/04/30 22:15:46;;;;;;;0.83;0.43;;;16.30;99.90;;;;;;20696017;28;20226;-73
2021/04/30 22:25:49;;;;;;;0.20;0.17;;;16.20;99.90;;;;;;20679368;28;20664;-74
2021/04/30 22:35:53;;;;;;;0.20;0.17;;;16.00;99.90;;;;;;20613295;28;20227;-73
2021/04/30 22:45:56;;;;;;;0.20;0.10;;;15.90;99.90;;;;;;20611870;28;20203;-74
2021/04/30 22:55:59;;;;;;;0.20;0.10;;;15.90;99.90;;;;;;20611280;28;20231;-75
2021/04/30 23:06:02;;;;;;;0.40;0.40;;;16.40;99.90;;;;;;20681909;28;20612;-76
2021/04/30 23:16:05;;;;;;;0.20;0.10;;;16.40;99.90;;;;;;20710075;28;21109;-75
2021/04/30 23:26:08;;;;;;;0.20;0.10;;;16.30;99.90;;;;;;20652156;28;20696;-75
2021/04/30 23:36:12;;;;;;;0.20;0.20;;;16.40;99.90;;;;;;20625996;28;20231;-72
2021/04/30 23:46:14;;;;;;;0.20;0.13;;;16.20;99.90;;;;;;20608858;28;20246;-73
2021/04/30 23:56:18;;;;;;;0.20;0.10;;;16.10;99.90;;;;;;20623962;28;21034;-74
